Briggsville, Wisconsin
Current Conditions -  °F | °C
As of 3:15 PM on Saturday 22 Nov 2014 (Local Time) from KDLL Reporting Station
Haze Haze  
Wind Chill: 34°   Ceiling: 300
Heat Index: 40°   Visibility: 4mi
Dew Point: 39°   Wind: 10mph
Humidity: 95%   Direction: 220°SW
Pressure: 29.76"   Gusts: NA
Location:  43.65°N, 89.59°W
Report Text: KDLL 222115Z AUTO 22009KT 4SM BR OVC003 05/04 A2976 RMK AO2 T00460038
Loading
Personal Weather Stations






























Interactive Weather Map New forecast layout! Learn more

10-Day Weather Forecast

Advertisements
Track Severe Weather on mobile